createdAt,value
2023-02-09T00:01:17.644Z,63.47
2023-02-09T00:02:43.820Z,63.03
2023-02-09T00:04:07.951Z,60.85
2023-02-09T00:05:30.144Z,63.05
2023-02-09T00:06:56.065Z,64.78
2023-02-09T00:08:18.258Z,64.28
2023-02-09T00:09:40.923Z,60.55
2023-02-09T00:11:07.913Z,63.17
2023-02-09T00:12:50.272Z,63.67
2023-02-09T00:15:39.154Z,59.22
2023-02-09T00:17:02.868Z,63.47
2023-02-09T00:18:26.639Z,62.45
2023-02-09T00:19:50.262Z,61.70
2023-02-09T00:21:12.273Z,64.03
2023-02-09T00:22:34.952Z,67.68
2023-02-09T00:23:58.620Z,62.92
2023-02-09T00:25:21.073Z,66.50
2023-02-09T00:26:42.662Z,65.03
2023-02-09T00:28:05.526Z,68.50
2023-02-09T00:29:27.965Z,66.88
2023-02-09T00:30:52.340Z,67.45
2023-02-09T00:32:13.993Z,69.75
2023-02-09T00:33:42.293Z,69.45
2023-02-09T00:35:07.939Z,69.40
2023-02-09T00:36:31.532Z,71.10
2023-02-09T00:37:53.900Z,76.75
2023-02-09T00:39:15.053Z,72.32
2023-02-09T00:40:39.323Z,69.80
2023-02-09T00:42:08.337Z,73.22
2023-02-09T00:43:31.610Z,71.00
2023-02-09T00:44:54.248Z,68.05
2023-02-09T00:46:16.888Z,69.25
2023-02-09T00:47:39.021Z,70.40
2023-02-09T00:49:05.135Z,70.07
2023-02-09T00:50:32.680Z,70.93
2023-02-09T00:52:29.184Z,73.78
2023-02-09T00:53:51.953Z,70.57
2023-02-09T00:55:21.285Z,72.13
2023-02-09T00:56:42.589Z,72.75
2023-02-09T00:58:05.074Z,74.65
2023-02-09T00:59:37.331Z,71.57
2023-02-09T01:02:33.641Z,67.43
2023-02-09T01:03:55.318Z,71.15
2023-02-09T01:05:19.707Z,73.75
2023-02-09T01:06:42.350Z,74.75
2023-02-09T01:08:04.712Z,73.95
2023-02-09T01:09:27.776Z,77.80
2023-02-09T01:10:50.220Z,73.35
2023-02-09T01:12:13.650Z,76.07
2023-02-09T01:13:35.914Z,74.18
2023-02-09T01:14:58.042Z,74.22
2023-02-09T01:16:21.695Z,77.07
2023-02-09T01:17:43.938Z,75.38
2023-02-09T01:19:06.364Z,77.18
2023-02-09T01:20:30.180Z,75.28
2023-02-09T01:21:55.601Z,76.80
2023-02-09T01:23:20.516Z,80.45
2023-02-09T01:24:43.128Z,79.20
2023-02-09T01:26:11.079Z,81.90
2023-02-09T01:27:34.614Z,80.05
2023-02-09T01:28:59.748Z,82.43
2023-02-09T01:30:23.878Z,80.05
2023-02-09T01:31:47.157Z,80.47
2023-02-09T01:33:09.822Z,80.60
2023-02-09T01:34:30.898Z,82.07
2023-02-09T01:36:15.530Z,79.75
2023-02-09T01:37:37.910Z,78.88
2023-02-09T01:39:02.541Z,81.57
2023-02-09T01:40:24.771Z,81.90
2023-02-09T01:41:54.073Z,82.10
2023-02-09T01:43:16.700Z,83.20
2023-02-09T01:45:07.889Z,82.18
2023-02-09T01:46:34.617Z,80.13
2023-02-09T01:48:00.247Z,82.90
2023-02-09T01:49:26.500Z,81.85
2023-02-09T01:50:50.000Z,82.38
2023-02-09T01:52:22.317Z,83.65
2023-02-09T01:53:45.435Z,80.45
2023-02-09T01:55:11.517Z,79.75
2023-02-09T01:56:33.858Z,82.82
2023-02-09T01:58:00.866Z,82.28
2023-02-09T01:59:23.679Z,82.13
2023-02-09T02:00:46.896Z,80.85
2023-02-09T02:02:12.302Z,83.18
2023-02-09T02:03:34.972Z,86.15
2023-02-09T02:04:58.828Z,81.45
2023-02-09T02:06:21.466Z,83.38
2023-02-09T02:07:48.444Z,82.13
2023-02-09T02:09:14.137Z,80.05
2023-02-09T02:10:36.029Z,82.57
2023-02-09T02:11:58.526Z,82.30
2023-02-09T02:13:24.250Z,79.30
2023-02-09T02:14:46.466Z,81.82
2023-02-09T02:16:24.502Z,82.28
2023-02-09T02:18:01.382Z,80.70
2023-02-09T02:20:08.561Z,80.25
2023-02-09T02:22:03.843Z,77.38
2023-02-09T02:23:37.656Z,79.47
2023-02-09T02:25:19.595Z,77.75
2023-02-09T02:26:59.755Z,79.68
2023-02-09T02:28:41.977Z,77.22
2023-02-09T02:30:36.137Z,78.00
2023-02-09T02:32:20.483Z,74.10
2023-02-09T02:33:47.206Z,77.88
2023-02-09T02:35:17.891Z,81.72
2023-02-09T02:36:53.745Z,78.88
2023-02-09T02:38:20.025Z,77.38
2023-02-09T02:39:52.491Z,78.38
2023-02-09T02:42:50.685Z,71.18
2023-02-09T02:44:17.447Z,73.97
2023-02-09T02:45:45.178Z,74.28
2023-02-09T02:47:12.392Z,70.47
2023-02-09T02:48:39.065Z,71.32
2023-02-09T02:50:06.542Z,71.85
2023-02-09T02:51:33.505Z,69.60
2023-02-09T02:52:58.156Z,70.18
2023-02-09T02:54:26.566Z,72.85
2023-02-09T02:55:51.639Z,68.38
2023-02-09T02:57:18.314Z,68.53
2023-02-09T02:58:42.863Z,68.53
2023-02-09T03:00:12.454Z,65.05
2023-02-09T03:01:40.718Z,62.83
2023-02-09T03:03:11.721Z,62.28
2023-02-09T03:04:37.009Z,57.78
2023-02-09T03:05:59.540Z,58.08
2023-02-09T03:07:22.188Z,56.72
2023-02-09T03:08:48.905Z,56.20
2023-02-09T03:10:27.084Z,58.33
2023-02-09T03:11:53.237Z,58.78
2023-02-09T03:13:37.392Z,59.03
2023-02-09T03:15:15.542Z,59.83
2023-02-09T03:16:46.510Z,58.20
2023-02-09T03:18:21.829Z,59.88
2023-02-09T03:19:52.793Z,59.70
2023-02-09T03:21:17.466Z,66.28
2023-02-09T03:22:43.234Z,70.32
2023-02-09T03:24:08.129Z,67.22
2023-02-09T03:25:35.926Z,70.57
2023-02-09T03:27:02.479Z,70.32
2023-02-09T03:28:30.465Z,70.85
2023-02-09T03:29:56.457Z,65.93
2023-02-09T03:31:18.793Z,69.45
2023-02-09T03:32:43.671Z,69.75
2023-02-09T03:34:07.037Z,67.38
2023-02-09T03:35:37.670Z,64.85
2023-02-09T03:37:00.233Z,66.53
2023-02-09T03:38:23.110Z,68.53
2023-02-09T03:39:45.566Z,66.03
2023-02-09T03:41:09.479Z,67.40
2023-02-09T03:42:31.712Z,68.20
2023-02-09T03:44:11.337Z,68.00
2023-02-09T03:45:33.901Z,67.32
2023-02-09T03:46:56.790Z,67.55
2023-02-09T03:48:19.184Z,65.55
2023-02-09T03:49:42.985Z,66.13
2023-02-09T03:51:06.869Z,67.03
2023-02-09T03:52:31.105Z,64.70
2023-02-09T03:53:52.165Z,66.57
2023-02-09T03:55:17.047Z,67.53
2023-02-09T03:56:39.630Z,67.93
2023-02-09T03:58:01.903Z,66.70
2023-02-09T03:59:25.360Z,67.63
2023-02-09T04:00:47.853Z,67.95
2023-02-09T04:02:11.522Z,71.88
2023-02-09T04:03:33.170Z,66.55
2023-02-09T04:04:57.165Z,73.72
2023-02-09T04:06:18.491Z,72.53
2023-02-09T04:07:43.789Z,70.22
2023-02-09T04:09:06.866Z,72.80
2023-02-09T04:10:31.609Z,74.88
2023-02-09T04:11:53.744Z,70.13
2023-02-09T04:14:41.105Z,68.68
2023-02-09T04:16:02.693Z,71.93
2023-02-09T04:17:25.121Z,74.85
2023-02-09T04:18:46.775Z,73.30
2023-02-09T04:20:11.265Z,62.33
2023-02-09T04:21:32.765Z,72.10
2023-02-09T04:22:54.885Z,70.25
2023-02-09T04:24:17.354Z,71.53
2023-02-09T04:25:38.544Z,72.35
2023-02-09T04:27:01.075Z,75.68
2023-02-09T04:28:23.440Z,75.55
2023-02-09T04:29:46.068Z,73.63
2023-02-09T04:31:08.669Z,74.10
2023-02-09T04:32:41.503Z,70.00
2023-02-09T04:34:04.164Z,68.75
2023-02-09T04:35:27.136Z,73.03
2023-02-09T04:36:49.246Z,74.53
2023-02-09T04:38:10.636Z,72.43
2023-02-09T04:39:35.933Z,56.03
2023-02-09T04:41:01.275Z,68.95
2023-02-09T04:42:23.112Z,68.10
2023-02-09T04:43:46.959Z,71.07
2023-02-09T04:45:09.356Z,69.90
2023-02-09T04:46:31.823Z,70.18
2023-02-09T04:47:54.030Z,68.53
2023-02-09T04:49:16.134Z,69.95
2023-02-09T04:52:00.765Z,65.65
2023-02-09T04:53:23.995Z,65.45
2023-02-09T04:54:46.285Z,65.15
2023-02-09T04:56:09.301Z,70.38
2023-02-09T04:57:48.679Z,71.25
2023-02-09T04:59:34.051Z,67.65
2023-02-09T05:00:56.971Z,64.50
2023-02-09T05:02:19.272Z,69.25
2023-02-09T05:03:43.768Z,69.57
2023-02-09T05:05:06.333Z,70.30
2023-02-09T05:06:30.631Z,64.45
2023-02-09T05:07:51.913Z,63.75
2023-02-09T05:09:14.450Z,67.07
2023-02-09T05:10:35.957Z,65.88
2023-02-09T05:13:21.573Z,51.75
2023-02-09T05:14:44.016Z,65.93
2023-02-09T05:16:10.258Z,69.13
2023-02-09T05:17:35.067Z,69.95
2023-02-09T05:18:57.477Z,66.32
2023-02-09T05:20:22.014Z,67.13
2023-02-09T05:21:45.720Z,67.03
2023-02-09T05:23:07.062Z,71.07
2023-02-09T05:24:29.230Z,66.75
2023-02-09T05:25:51.661Z,68.22
2023-02-09T05:27:13.968Z,69.30
2023-02-09T05:28:36.323Z,68.70
2023-02-09T05:29:58.523Z,67.75
2023-02-09T05:31:20.856Z,67.35
2023-02-09T05:32:43.039Z,64.55
2023-02-09T05:34:05.140Z,68.68
2023-02-09T05:35:26.650Z,70.40
2023-02-09T05:36:50.641Z,68.35
2023-02-09T05:38:15.586Z,67.90
2023-02-09T05:39:37.808Z,68.72
2023-02-09T05:40:59.883Z,67.32
2023-02-09T05:42:21.233Z,68.38
2023-02-09T05:43:43.691Z,65.43
2023-02-09T05:45:06.500Z,64.22
2023-02-09T05:46:28.814Z,64.30
2023-02-09T05:47:54.931Z,61.83
2023-02-09T05:49:17.515Z,63.65
2023-02-09T05:50:41.905Z,62.03
2023-02-09T05:52:06.539Z,62.25
2023-02-09T05:53:28.783Z,58.60
2023-02-09T05:54:50.343Z,61.05
2023-02-09T05:56:13.497Z,60.60
2023-02-09T05:57:36.102Z,59.25
2023-02-09T05:58:58.363Z,59.67
2023-02-09T06:00:21.183Z,58.92
2023-02-09T06:01:42.623Z,56.83
2023-02-09T06:03:04.948Z,57.65
2023-02-09T06:04:27.664Z,53.78
2023-02-09T06:05:49.955Z,54.50
2023-02-09T06:07:13.649Z,53.58
2023-02-09T06:08:36.106Z,55.85
2023-02-09T06:09:57.399Z,54.20
2023-02-09T06:11:20.656Z,53.38
2023-02-09T06:12:43.203Z,56.97
2023-02-09T06:14:07.156Z,54.42
2023-02-09T06:15:29.517Z,52.90
2023-02-09T06:16:52.238Z,51.67
2023-02-09T06:18:15.344Z,54.10
2023-02-09T06:19:37.376Z,53.65
2023-02-09T06:20:59.731Z,53.53
2023-02-09T06:22:23.574Z,49.58
2023-02-09T06:23:44.924Z,50.00
2023-02-09T06:25:15.508Z,41.30
2023-02-09T06:26:38.296Z,49.08
2023-02-09T06:28:00.929Z,49.72
2023-02-09T06:29:25.867Z,50.58
2023-02-09T06:30:51.818Z,50.90
2023-02-09T06:32:16.683Z,48.60
2023-02-09T06:33:39.314Z,47.28
2023-02-09T06:35:01.337Z,48.55
2023-02-09T06:36:23.846Z,46.33
2023-02-09T06:37:47.398Z,46.47
2023-02-09T06:39:10.900Z,44.05
2023-02-09T06:40:33.212Z,43.42
2023-02-09T06:41:57.395Z,42.65
2023-02-09T06:43:18.750Z,40.72
2023-02-09T06:44:40.975Z,44.65
2023-02-09T06:46:11.969Z,42.63
2023-02-09T06:47:33.484Z,43.85
2023-02-09T06:50:21.420Z,41.60
2023-02-09T06:51:43.924Z,43.40
2023-02-09T06:53:08.036Z,42.63
2023-02-09T06:54:30.700Z,44.08
2023-02-09T06:55:52.970Z,41.92
2023-02-09T06:57:15.475Z,43.10
2023-02-09T06:58:39.650Z,41.65
2023-02-09T07:00:02.495Z,39.95
2023-02-09T07:01:25.126Z,40.20
2023-02-09T07:02:47.609Z,38.60
2023-02-09T07:04:10.134Z,38.13
2023-02-09T07:05:34.323Z,35.83
2023-02-09T07:06:57.075Z,32.03
2023-02-09T07:08:21.025Z,34.03
2023-02-09T07:09:43.322Z,30.38
2023-02-09T07:11:07.073Z,31.75
2023-02-09T07:12:31.936Z,29.88
2023-02-09T07:13:54.675Z,28.88
2023-02-09T07:15:16.704Z,29.65
2023-02-09T07:16:39.262Z,26.15
2023-02-09T07:18:01.564Z,27.35
2023-02-09T07:19:24.461Z,25.50
2023-02-09T07:20:47.112Z,26.48
2023-02-09T07:22:09.754Z,25.95
2023-02-09T07:23:36.104Z,23.35
2023-02-09T07:25:09.357Z,24.45
2023-02-09T07:26:32.287Z,23.80
2023-02-09T07:27:54.999Z,22.33
2023-02-09T07:29:21.017Z,21.75
2023-02-09T07:30:43.752Z,21.98
2023-02-09T07:32:07.372Z,21.65
2023-02-09T07:33:31.943Z,21.42
2023-02-09T07:34:54.690Z,19.92
2023-02-09T07:36:21.239Z,20.83
2023-02-09T07:37:45.384Z,20.20
2023-02-09T07:39:09.445Z,20.13
2023-02-09T07:40:35.268Z,19.30
2023-02-09T07:42:06.533Z,18.52
2023-02-09T07:43:47.960Z,18.23
2023-02-09T07:45:13.149Z,19.55
2023-02-09T07:46:38.109Z,18.98
2023-02-09T07:48:06.030Z,18.95
2023-02-09T07:49:33.532Z,18.15
2023-02-09T07:51:15.589Z,19.08
2023-02-09T07:52:37.623Z,18.45
2023-02-09T07:54:00.571Z,18.92
2023-02-09T07:55:26.929Z,20.38
2023-02-09T07:56:51.146Z,18.50
2023-02-09T07:58:14.946Z,20.38
2023-02-09T07:59:43.200Z,19.38
2023-02-09T08:01:15.078Z,18.48
2023-02-09T08:02:41.636Z,17.60
2023-02-09T08:04:04.451Z,18.45
2023-02-09T08:05:31.998Z,16.27
2023-02-09T08:06:58.697Z,17.65
2023-02-09T08:08:26.945Z,18.20
2023-02-09T08:09:51.610Z,16.80
2023-02-09T08:11:24.794Z,17.50
2023-02-09T08:13:02.284Z,18.23
2023-02-09T08:14:30.243Z,16.23
2023-02-09T08:15:57.546Z,17.40
2023-02-09T08:17:28.406Z,17.10
2023-02-09T08:19:02.458Z,16.40
2023-02-09T08:20:28.870Z,18.55
2023-02-09T08:21:52.202Z,17.52
2023-02-09T08:23:23.925Z,16.92
2023-02-09T08:24:46.360Z,15.93
2023-02-09T08:26:11.433Z,17.55
2023-02-09T08:27:39.408Z,15.38
2023-02-09T08:29:02.128Z,16.20
2023-02-09T08:30:30.642Z,17.42
2023-02-09T08:32:05.837Z,16.95
2023-02-09T08:33:32.815Z,16.40
2023-02-09T08:34:56.390Z,16.80
2023-02-09T08:36:20.480Z,15.73
2023-02-09T08:37:48.059Z,18.13
2023-02-09T08:39:11.106Z,15.52
2023-02-09T08:40:38.506Z,16.35
2023-02-09T08:42:04.330Z,15.40
2023-02-09T08:43:29.774Z,15.63
2023-02-09T08:44:52.702Z,16.20
2023-02-09T08:46:15.389Z,16.95
2023-02-09T08:47:42.602Z,14.98
2023-02-09T08:49:05.234Z,16.83
2023-02-09T08:50:27.446Z,17.48
2023-02-09T08:51:51.949Z,16.45
2023-02-09T08:53:19.735Z,15.40
2023-02-09T08:54:43.043Z,15.10
2023-02-09T08:56:11.954Z,15.55
2023-02-09T08:57:43.415Z,14.98
2023-02-09T08:59:08.802Z,15.60
2023-02-09T09:00:36.686Z,16.77
2023-02-09T09:01:59.736Z,15.77
2023-02-09T09:03:22.069Z,16.05
2023-02-09T09:04:51.618Z,15.52
2023-02-09T09:06:15.568Z,14.57
2023-02-09T09:07:43.339Z,15.10
2023-02-09T09:09:24.740Z,14.88
2023-02-09T09:10:50.644Z,16.48
2023-02-09T09:12:15.100Z,16.55
2023-02-09T09:13:37.693Z,16.65
2023-02-09T09:15:02.151Z,15.63
2023-02-09T09:16:30.667Z,16.63
2023-02-09T09:17:55.335Z,15.85
2023-02-09T09:19:18.152Z,15.85
2023-02-09T09:20:43.928Z,16.98
2023-02-09T09:22:09.634Z,15.27
2023-02-09T09:23:37.180Z,15.15
2023-02-09T09:24:59.364Z,15.32
2023-02-09T09:26:21.801Z,14.80
2023-02-09T09:27:44.976Z,14.07
2023-02-09T09:29:07.590Z,14.60
2023-02-09T09:30:32.266Z,14.85
2023-02-09T09:31:57.269Z,14.77
2023-02-09T09:33:22.104Z,14.35
2023-02-09T09:34:47.194Z,15.13
2023-02-09T09:36:12.620Z,14.40
2023-02-09T09:37:34.972Z,14.95
2023-02-09T09:41:32.906Z,12.68
2023-02-09T09:43:23.331Z,12.52
2023-02-09T09:44:48.076Z,13.55
2023-02-09T09:46:18.874Z,13.60
2023-02-09T09:47:49.277Z,12.93
2023-02-09T09:49:24.223Z,13.68
2023-02-09T09:50:47.662Z,14.02
2023-02-09T09:52:20.070Z,12.70
2023-02-09T09:55:16.686Z,13.20
2023-02-09T09:56:41.822Z,12.82
2023-02-09T09:58:07.313Z,13.23
2023-02-09T09:59:38.949Z,12.50
2023-02-09T10:01:04.476Z,13.07
2023-02-09T10:02:33.190Z,13.00
2023-02-09T10:04:02.165Z,13.02
2023-02-09T10:05:29.140Z,12.45
2023-02-09T10:07:00.358Z,12.27
2023-02-09T10:08:41.583Z,13.10
2023-02-09T10:10:19.121Z,12.07
2023-02-09T10:11:51.539Z,11.85
2023-02-09T10:13:24.786Z,13.30
2023-02-09T10:14:57.775Z,12.20
2023-02-09T10:16:25.107Z,11.40
2023-02-09T10:18:01.156Z,12.00
2023-02-09T10:19:35.967Z,12.82
2023-02-09T10:21:04.024Z,11.35
2023-02-09T10:22:31.696Z,12.50
2023-02-09T10:24:21.412Z,11.73
2023-02-09T10:26:06.401Z,12.52
2023-02-09T10:27:32.641Z,11.05
2023-02-09T10:28:57.482Z,11.52
2023-02-09T10:30:33.332Z,10.93
2023-02-09T10:32:07.697Z,11.50
2023-02-09T10:33:44.470Z,11.60
2023-02-09T10:35:29.391Z,11.45
2023-02-09T10:36:53.268Z,10.82
2023-02-09T10:38:19.248Z,11.77
2023-02-09T10:39:43.647Z,11.73
2023-02-09T10:41:11.672Z,11.35
2023-02-09T10:42:36.041Z,11.80
2023-02-09T10:44:04.959Z,11.40
2023-02-09T10:45:30.830Z,11.10
2023-02-09T10:47:11.239Z,10.60
2023-02-09T10:48:44.611Z,11.63
2023-02-09T10:50:19.354Z,11.45
2023-02-09T10:51:44.093Z,11.02
2023-02-09T10:53:21.318Z,12.23
2023-02-09T10:54:44.893Z,10.80
2023-02-09T10:56:12.018Z,11.13
2023-02-09T10:57:38.506Z,10.82
2023-02-09T10:59:04.897Z,10.93
2023-02-09T11:00:34.251Z,12.55
2023-02-09T11:01:59.213Z,11.57
2023-02-09T11:03:25.483Z,11.20
2023-02-09T11:04:49.619Z,11.82
2023-02-09T11:06:17.853Z,11.15
2023-02-09T11:07:43.649Z,11.20
2023-02-09T11:09:18.279Z,10.98
2023-02-09T11:10:50.478Z,10.32
2023-02-09T11:12:14.240Z,11.20
2023-02-09T11:13:37.141Z,11.15
2023-02-09T11:15:02.957Z,11.00
2023-02-09T11:16:49.034Z,11.15
2023-02-09T11:18:19.520Z,11.18
2023-02-09T11:20:00.588Z,11.38
2023-02-09T11:21:35.284Z,10.82
2023-02-09T11:23:31.990Z,12.00
2023-02-09T11:25:03.707Z,10.90
2023-02-09T11:26:39.542Z,11.00
2023-02-09T11:28:28.492Z,10.95
2023-02-09T11:29:59.315Z,11.40
2023-02-09T11:31:44.545Z,11.60
2023-02-09T11:33:12.507Z,10.95
2023-02-09T11:35:03.673Z,10.25
2023-02-09T11:36:47.717Z,10.68
2023-02-09T11:38:16.357Z,10.70
2023-02-09T11:39:45.909Z,11.15
2023-02-09T11:41:27.405Z,10.85
2023-02-09T11:42:58.538Z,11.23
2023-02-09T11:44:28.594Z,14.17
2023-02-09T11:45:52.058Z,12.82
2023-02-09T11:47:19.632Z,11.10
2023-02-09T11:48:48.750Z,11.68
2023-02-09T11:50:21.350Z,11.02
2023-02-09T11:51:47.802Z,10.00
2023-02-09T11:53:21.699Z,11.60
2023-02-09T11:54:52.340Z,10.88
2023-02-09T11:56:16.655Z,11.07
2023-02-09T11:57:46.572Z,10.98
2023-02-09T11:59:17.795Z,10.77
2023-02-09T12:00:56.287Z,8.88
2023-02-09T12:02:33.007Z,10.68
2023-02-09T12:04:05.160Z,10.98
2023-02-09T12:05:29.782Z,10.40
2023-02-09T12:06:55.790Z,11.82
2023-02-09T12:08:50.334Z,11.25
2023-02-09T12:10:21.450Z,10.75
2023-02-09T12:11:57.376Z,11.82
2023-02-09T12:13:35.069Z,10.55
2023-02-09T12:15:04.610Z,10.38
2023-02-09T12:16:30.560Z,10.73
2023-02-09T12:18:00.614Z,11.32
2023-02-09T12:19:31.678Z,10.05
2023-02-09T12:20:58.394Z,10.32
2023-02-09T12:22:49.661Z,10.35
2023-02-09T12:24:34.171Z,10.95
2023-02-09T12:26:00.172Z,9.82
2023-02-09T12:27:28.129Z,9.77
2023-02-09T12:29:03.799Z,10.15
2023-02-09T12:31:01.425Z,10.25
2023-02-09T12:32:44.071Z,9.90
2023-02-09T12:34:16.321Z,10.32
2023-02-09T12:37:27.243Z,9.90
2023-02-09T12:39:06.581Z,10.18
2023-02-09T12:40:37.767Z,11.52
2023-02-09T12:42:42.480Z,11.45
2023-02-09T12:44:39.513Z,10.27
2023-02-09T12:46:17.962Z,10.90
2023-02-09T12:47:46.228Z,10.68
2023-02-09T12:49:21.015Z,10.68
2023-02-09T12:50:55.299Z,10.50
2023-02-09T12:52:20.003Z,10.02
2023-02-09T12:53:47.468Z,11.75
2023-02-09T12:55:35.630Z,9.93
2023-02-09T12:56:58.470Z,11.20
2023-02-09T12:58:40.636Z,10.95
2023-02-09T13:00:43.830Z,11.20
2023-02-09T13:02:18.191Z,10.40
2023-02-09T13:03:46.287Z,11.57
2023-02-09T13:05:13.093Z,13.30
2023-02-09T13:06:42.252Z,12.95
2023-02-09T13:08:16.698Z,11.10
2023-02-09T13:09:46.570Z,11.70
2023-02-09T13:11:24.664Z,12.45
2023-02-09T13:12:53.325Z,11.48
2023-02-09T13:14:18.079Z,11.38
2023-02-09T13:15:53.446Z,12.00
2023-02-09T13:17:38.252Z,11.77
2023-02-09T13:19:14.278Z,11.93
2023-02-09T13:21:09.082Z,11.73
2023-02-09T13:22:47.032Z,12.70
2023-02-09T13:24:16.497Z,12.82
2023-02-09T13:25:44.538Z,12.23
2023-02-09T13:27:19.450Z,11.80
2023-02-09T13:28:41.926Z,12.40
2023-02-09T13:30:06.196Z,12.05
2023-02-09T13:31:37.025Z,12.75
2023-02-09T13:33:09.527Z,11.77
2023-02-09T13:34:42.307Z,12.43
2023-02-09T13:36:24.695Z,12.10
2023-02-09T13:37:49.437Z,12.85
2023-02-09T13:39:23.165Z,13.10
2023-02-09T13:40:50.432Z,12.60
2023-02-09T13:42:21.855Z,13.55
2023-02-09T13:43:48.370Z,12.90
2023-02-09T13:45:19.559Z,13.25
2023-02-09T13:46:41.730Z,12.10
2023-02-09T13:48:15.228Z,13.65
2023-02-09T13:49:37.552Z,13.52
2023-02-09T13:51:02.732Z,13.98
2023-02-09T13:52:26.937Z,14.40
2023-02-09T13:53:58.271Z,14.85
2023-02-09T13:55:27.153Z,15.00
2023-02-09T13:56:52.861Z,15.45
2023-02-09T13:58:24.670Z,17.67
2023-02-09T13:59:50.228Z,15.30
2023-02-09T14:01:18.197Z,15.80
2023-02-09T14:02:48.380Z,15.80
2023-02-09T14:04:17.058Z,15.35
2023-02-09T14:05:43.885Z,14.95
2023-02-09T14:07:14.855Z,15.23
2023-02-09T14:08:41.349Z,14.77
2023-02-09T14:10:20.190Z,14.30
2023-02-09T14:11:49.989Z,15.05
2023-02-09T14:13:19.721Z,15.57
2023-02-09T14:15:03.040Z,14.77
2023-02-09T14:16:28.236Z,14.20
2023-02-09T14:17:53.996Z,15.43
2023-02-09T14:19:27.630Z,16.55
2023-02-09T14:21:10.689Z,16.73
2023-02-09T14:22:35.932Z,15.90
2023-02-09T14:24:17.733Z,15.30
2023-02-09T14:25:40.464Z,15.45
2023-02-09T14:27:18.303Z,14.63
2023-02-09T14:28:40.896Z,15.75
2023-02-09T14:30:03.428Z,15.00
2023-02-09T14:31:28.055Z,15.38
2023-02-09T14:32:55.759Z,14.98
2023-02-09T14:34:25.626Z,15.85
2023-02-09T14:35:56.122Z,15.90
2023-02-09T14:37:31.954Z,15.35
2023-02-09T14:39:05.754Z,14.95
2023-02-09T14:40:34.414Z,15.55
2023-02-09T14:42:18.627Z,16.02
2023-02-09T14:43:41.186Z,16.40
2023-02-09T14:45:30.828Z,15.75
2023-02-09T14:46:54.788Z,15.80
2023-02-09T14:48:26.795Z,16.23
2023-02-09T14:49:49.272Z,15.88
2023-02-09T14:51:18.613Z,16.02
2023-02-09T14:52:46.758Z,17.73
2023-02-09T14:54:25.947Z,16.83
2023-02-09T14:55:49.239Z,15.38
2023-02-09T14:57:14.529Z,17.38
2023-02-09T14:58:41.325Z,16.40
2023-02-09T15:00:15.005Z,16.42
2023-02-09T15:01:37.770Z,17.40
2023-02-09T15:03:00.444Z,17.33
2023-02-09T15:04:23.317Z,17.52
2023-02-09T15:05:46.863Z,17.38
2023-02-09T15:07:17.498Z,17.30
2023-02-09T15:08:44.156Z,16.83
2023-02-09T15:10:17.128Z,16.55
2023-02-09T15:11:56.464Z,17.85
2023-02-09T15:13:21.244Z,17.70
2023-02-09T15:14:45.597Z,17.63
2023-02-09T15:16:09.965Z,17.10
2023-02-09T15:17:33.015Z,19.45
2023-02-09T15:18:55.601Z,17.73
2023-02-09T15:20:21.492Z,18.38
2023-02-09T15:21:44.157Z,18.52
2023-02-09T15:23:09.866Z,18.33
2023-02-09T15:24:32.177Z,18.75
2023-02-09T15:25:54.878Z,17.73
2023-02-09T15:27:25.191Z,18.40
2023-02-09T15:28:49.427Z,18.08
2023-02-09T15:30:15.674Z,18.63
2023-02-09T15:31:41.100Z,19.52
2023-02-09T15:33:03.631Z,19.40
2023-02-09T15:34:26.150Z,19.33
2023-02-09T15:35:49.362Z,19.50
2023-02-09T15:37:22.308Z,19.00
2023-02-09T15:38:44.553Z,18.00
2023-02-09T15:40:44.007Z,20.08
2023-02-09T15:42:32.731Z,21.85
2023-02-09T15:44:14.128Z,18.77
2023-02-09T15:46:05.975Z,20.17
2023-02-09T15:47:46.370Z,18.77
2023-02-09T15:49:08.720Z,19.02
2023-02-09T15:50:33.027Z,20.80
2023-02-09T15:51:55.474Z,20.17
2023-02-09T15:53:21.415Z,19.85
2023-02-09T15:54:44.603Z,20.70
2023-02-09T15:56:10.973Z,20.33
2023-02-09T15:57:32.526Z,20.38
2023-02-09T15:59:00.193Z,20.08
2023-02-09T16:00:35.104Z,20.50
2023-02-09T16:02:07.000Z,20.65
2023-02-09T16:03:31.996Z,20.52
2023-02-09T16:04:58.033Z,20.85
2023-02-09T16:06:25.996Z,21.70
2023-02-09T16:07:50.695Z,20.77
2023-02-09T16:09:18.976Z,21.30
2023-02-09T16:10:41.583Z,22.13
2023-02-09T16:12:05.231Z,21.58
2023-02-09T16:13:30.854Z,21.80
2023-02-09T16:14:54.545Z,20.45
2023-02-09T16:16:17.942Z,20.50
2023-02-09T16:17:41.766Z,20.10
2023-02-09T16:19:05.358Z,20.85
2023-02-09T16:20:31.108Z,21.83
2023-02-09T16:22:00.455Z,21.67
2023-02-09T16:23:47.969Z,21.73
2023-02-09T16:25:21.802Z,21.35
2023-02-09T16:26:44.245Z,22.38
2023-02-09T16:28:06.665Z,23.17
2023-02-09T16:29:29.168Z,23.05
2023-02-09T16:30:55.391Z,22.38
2023-02-09T16:32:22.975Z,22.67
2023-02-09T16:33:46.644Z,22.17
2023-02-09T16:35:16.798Z,20.58
2023-02-09T16:36:42.715Z,23.05
2023-02-09T16:38:16.649Z,22.35
2023-02-09T16:39:41.811Z,22.27
2023-02-09T16:41:04.479Z,21.70
2023-02-09T16:42:26.298Z,22.95
2023-02-09T16:43:52.065Z,20.63
2023-02-09T16:45:16.603Z,21.42
2023-02-09T16:46:44.831Z,21.27
2023-02-09T16:48:20.245Z,22.35
2023-02-09T16:51:07.600Z,20.38
2023-02-09T16:52:32.863Z,22.08
2023-02-09T16:53:55.712Z,22.50
2023-02-09T16:55:25.403Z,23.35
2023-02-09T16:56:54.125Z,23.73
2023-02-09T16:58:21.627Z,22.73
2023-02-09T16:59:46.830Z,21.25
2023-02-09T17:01:17.059Z,20.80
2023-02-09T17:02:44.356Z,21.08
2023-02-09T17:04:09.661Z,22.90
2023-02-09T17:05:35.103Z,20.58
2023-02-09T17:06:57.806Z,21.40
2023-02-09T17:08:21.929Z,22.45
2023-02-09T17:10:35.734Z,22.13
2023-02-09T17:12:00.978Z,21.13
2023-02-09T17:13:25.913Z,21.88
2023-02-09T17:14:51.618Z,22.15
2023-02-09T17:16:22.906Z,21.73
2023-02-09T17:17:50.627Z,21.80
2023-02-09T17:19:18.248Z,23.25
2023-02-09T17:20:52.988Z,23.10
2023-02-09T17:22:15.646Z,22.92
2023-02-09T17:23:38.890Z,21.73
2023-02-09T17:25:01.702Z,22.17
2023-02-09T17:26:24.176Z,23.52
2023-02-09T17:27:50.091Z,22.90
2023-02-09T17:29:13.234Z,23.05
2023-02-09T17:30:45.263Z,22.95
2023-02-09T17:32:31.246Z,23.48
2023-02-09T17:34:04.982Z,24.40
2023-02-09T17:37:31.373Z,22.85
2023-02-09T17:38:56.255Z,23.65
2023-02-09T17:40:22.901Z,23.65
2023-02-09T17:41:50.072Z,22.58
2023-02-09T17:43:12.710Z,23.20
2023-02-09T17:48:18.389Z,24.08
2023-02-09T17:50:12.759Z,25.15
2023-02-09T17:52:48.878Z,23.08
2023-02-09T17:54:38.385Z,22.90
2023-02-09T17:56:19.545Z,23.40
2023-02-09T17:58:00.201Z,24.50
2023-02-09T18:04:20.958Z,22.02
2023-02-09T18:11:47.002Z,22.55
2023-02-09T18:13:29.165Z,19.75
2023-02-09T18:14:51.704Z,22.45
2023-02-09T18:16:17.934Z,22.90
2023-02-09T18:17:46.600Z,22.67
2023-02-09T18:22:27.019Z,22.52
2023-02-09T18:23:51.467Z,22.77
2023-02-09T18:25:36.474Z,21.75
2023-02-09T18:30:24.670Z,22.15
2023-02-09T18:31:52.654Z,21.88
2023-02-09T18:33:44.926Z,21.52
2023-02-09T18:35:46.438Z,20.40
2023-02-09T18:38:37.645Z,21.33
2023-02-09T18:40:25.158Z,21.10
2023-02-09T18:44:41.278Z,20.27
2023-02-09T18:46:04.896Z,20.33
2023-02-09T18:48:33.669Z,20.52
2023-02-09T18:49:48.112Z,20.30
2023-02-09T18:51:24.693Z,19.60
2023-02-09T18:55:22.317Z,18.58
2023-02-09T19:03:01.401Z,20.45
2023-02-09T19:04:30.644Z,21.58
2023-02-09T19:06:45.214Z,21.90
2023-02-09T19:11:28.457Z,20.42
2023-02-09T19:12:59.673Z,20.88
2023-02-09T19:20:05.892Z,20.55
2023-02-09T19:21:52.310Z,21.25
2023-02-09T19:30:06.515Z,20.45
2023-02-09T19:31:37.560Z,20.20
2023-02-09T19:32:53.785Z,21.05
2023-02-09T19:38:30.581Z,20.50
2023-02-09T19:42:43.729Z,21.00
2023-02-09T19:44:34.170Z,20.15
2023-02-09T19:46:41.616Z,19.67
2023-02-09T19:49:13.420Z,20.02
2023-02-09T19:53:00.685Z,20.58
2023-02-09T19:54:59.001Z,22.08
2023-02-09T19:56:26.655Z,20.75
2023-02-09T19:57:56.453Z,20.73
2023-02-09T19:59:19.291Z,21.27
2023-02-09T20:00:44.841Z,22.13
2023-02-09T20:02:07.621Z,21.25
2023-02-09T20:03:32.600Z,22.30
2023-02-09T20:04:57.220Z,22.52
2023-02-09T20:06:21.881Z,22.38
2023-02-09T20:07:49.056Z,22.05
2023-02-09T20:09:12.590Z,22.13
2023-02-09T20:10:37.269Z,21.55
2023-02-09T20:12:01.673Z,22.45
2023-02-09T20:13:26.753Z,24.15
2023-02-09T20:14:51.448Z,23.88
2023-02-09T20:16:21.478Z,23.27
2023-02-09T20:19:14.633Z,23.50